createdAt,value
2018-06-05T00:11:24.090Z,35.63
2018-06-05T00:13:53.093Z,37.43
2018-06-05T00:16:21.564Z,39.17
2018-06-05T00:18:50.006Z,40.63
2018-06-05T00:21:18.753Z,40.13
2018-06-05T00:23:47.208Z,38.63
2018-06-05T00:26:15.823Z,39.50
2018-06-05T00:28:44.949Z,42.13
2018-06-05T00:31:13.385Z,42.23
2018-06-05T00:33:42.517Z,44.47
2018-06-05T00:36:11.038Z,43.70
2018-06-05T00:38:39.493Z,44.13
2018-06-05T00:41:08.132Z,47.57
2018-06-05T00:43:36.596Z,47.23
2018-06-05T00:46:05.061Z,49.53
2018-06-05T00:48:33.493Z,49.00
2018-06-05T00:51:08.979Z,50.17
2018-06-05T00:53:37.418Z,47.07
2018-06-05T00:56:06.825Z,47.00
2018-06-05T00:58:35.387Z,48.77
2018-06-05T01:01:04.373Z,46.97
2018-06-05T01:03:33.461Z,46.83
2018-06-05T01:06:01.938Z,49.60
2018-06-05T01:08:30.417Z,47.33
2018-06-05T01:10:58.855Z,48.60
2018-06-05T01:13:27.634Z,45.30
2018-06-05T01:15:56.525Z,47.50
2018-06-05T01:18:25.073Z,45.13
2018-06-05T01:20:54.436Z,45.87
2018-06-05T01:23:23.252Z,42.80
2018-06-05T01:25:51.993Z,45.70
2018-06-05T01:28:20.461Z,41.57
2018-06-05T01:30:48.938Z,44.37
2018-06-05T01:33:17.537Z,45.37
2018-06-05T01:35:45.968Z,45.30
2018-06-05T01:38:14.901Z,43.97
2018-06-05T01:40:43.334Z,41.77
2018-06-05T01:43:11.757Z,43.00
2018-06-05T01:45:40.214Z,42.73
2018-06-05T01:48:08.996Z,43.13
2018-06-05T01:50:37.473Z,44.33
2018-06-05T01:53:06.157Z,43.23
2018-06-05T01:55:35.200Z,45.50
2018-06-05T01:58:03.833Z,42.30
2018-06-05T02:00:32.896Z,44.33
2018-06-05T02:03:01.753Z,46.17
2018-06-05T02:05:32.116Z,43.40
2018-06-05T02:08:00.905Z,45.10
2018-06-05T02:10:30.293Z,44.13
2018-06-05T02:12:59.156Z,44.87
2018-06-05T02:15:27.674Z,45.63
2018-06-05T02:17:56.129Z,46.07
2018-06-05T02:20:24.629Z,42.23
2018-06-05T02:22:53.104Z,42.40
2018-06-05T02:25:21.681Z,44.50
2018-06-05T02:27:52.107Z,44.97
2018-06-05T02:30:21.346Z,43.73
2018-06-05T02:32:50.485Z,46.10
2018-06-05T02:35:20.128Z,45.97
2018-06-05T02:37:49.065Z,44.63
2018-06-05T02:40:18.292Z,47.10
2018-06-05T02:42:47.046Z,45.53
2018-06-05T02:45:15.820Z,47.10
2018-06-05T02:47:45.134Z,47.97
2018-06-05T02:50:14.252Z,46.80
2018-06-05T02:52:43.274Z,45.90
2018-06-05T02:55:13.041Z,47.50
2018-06-05T02:57:42.302Z,47.33
2018-06-05T03:00:11.429Z,49.37
2018-06-05T03:02:40.322Z,47.93
2018-06-05T03:05:09.875Z,50.63
2018-06-05T03:07:38.729Z,49.67
2018-06-05T03:10:07.441Z,50.37
2018-06-05T03:12:36.756Z,48.20
2018-06-05T03:15:06.392Z,50.17
2018-06-05T03:17:35.498Z,50.93
2018-06-05T03:20:04.703Z,47.80
2018-06-05T03:22:34.868Z,47.53
2018-06-05T03:25:03.808Z,49.30
2018-06-05T03:27:33.199Z,50.20
2018-06-05T03:30:02.706Z,48.60
2018-06-05T03:32:31.772Z,50.17
2018-06-05T03:35:00.943Z,47.00
2018-06-05T03:37:30.706Z,47.47
2018-06-05T03:40:00.097Z,45.67
2018-06-05T03:42:29.362Z,45.77
2018-06-05T03:44:58.742Z,46.93
2018-06-05T03:57:12.897Z,45.53
2018-06-05T03:59:42.152Z,48.50
2018-06-05T04:02:11.865Z,50.37
2018-06-05T04:04:43.185Z,49.57
2018-06-05T04:07:12.686Z,52.07
2018-06-05T04:09:41.718Z,53.30
2018-06-05T04:12:11.135Z,52.27
2018-06-05T04:14:40.516Z,51.03
2018-06-05T04:17:09.796Z,49.77
2018-06-05T04:19:40.442Z,48.40
2018-06-05T04:22:11.933Z,50.20
2018-06-05T04:24:41.031Z,51.13
2018-06-05T04:27:10.810Z,49.93
2018-06-05T04:29:39.913Z,50.50
2018-06-05T04:32:09.399Z,49.93
2018-06-05T04:34:38.778Z,50.50
2018-06-05T04:37:09.276Z,46.77
2018-06-05T04:39:38.689Z,46.60
2018-06-05T04:42:07.748Z,47.23
2018-06-05T04:44:36.967Z,46.00
2018-06-05T04:47:06.450Z,45.13
2018-06-05T04:49:35.889Z,47.07
2018-06-05T04:52:04.848Z,45.20
2018-06-05T04:54:33.944Z,45.77
2018-06-05T04:57:02.843Z,45.33
2018-06-05T04:59:32.589Z,45.97
2018-06-05T05:02:01.548Z,46.40
2018-06-05T05:04:31.144Z,46.03
2018-06-05T05:07:01.621Z,46.53
2018-06-05T05:09:30.441Z,45.33
2018-06-05T05:11:59.486Z,44.77
2018-06-05T05:14:28.916Z,45.07
2018-06-05T05:16:59.275Z,48.87
2018-06-05T05:19:29.222Z,43.63
2018-06-05T05:21:58.414Z,43.97
2018-06-05T05:24:27.701Z,42.83
2018-06-05T05:26:57.329Z,44.83
2018-06-05T05:29:26.836Z,41.03
2018-06-05T05:31:55.981Z,43.60
2018-06-05T05:34:24.881Z,38.83
2018-06-05T05:36:54.792Z,39.77
2018-06-05T05:39:24.098Z,40.77
2018-06-05T05:41:53.150Z,44.63
2018-06-05T05:44:22.426Z,38.33
2018-06-05T05:46:51.899Z,39.13
2018-06-05T05:49:20.882Z,37.50
2018-06-05T05:51:54.368Z,35.40
2018-06-05T05:54:23.295Z,38.60
2018-06-05T05:56:53.351Z,38.83
2018-06-05T05:59:22.700Z,39.03
2018-06-05T06:01:52.042Z,36.63
2018-06-05T06:04:21.487Z,36.93
2018-06-05T06:06:50.975Z,38.40
2018-06-05T06:09:21.059Z,35.93
2018-06-05T06:11:51.301Z,35.50
2018-06-05T06:14:20.265Z,36.63
2018-06-05T06:16:50.089Z,36.77
2018-06-05T06:19:19.132Z,38.77
2018-06-05T06:21:48.864Z,37.03
2018-06-05T06:24:18.435Z,36.00
2018-06-05T06:26:48.099Z,34.27
2018-06-05T06:29:17.547Z,30.60
2018-06-05T06:31:46.523Z,30.63
2018-06-05T06:34:15.349Z,30.40
2018-06-05T06:36:44.242Z,32.10
2018-06-05T06:39:13.058Z,24.97
2018-06-05T06:41:43.810Z,29.77
2018-06-05T06:44:12.933Z,30.50
2018-06-05T06:46:41.702Z,31.60
2018-06-05T06:49:10.946Z,32.70
2018-06-05T06:51:39.400Z,32.23
2018-06-05T06:54:08.627Z,31.33
2018-06-05T06:56:37.824Z,32.47
2018-06-05T06:59:07.852Z,27.90
2018-06-05T07:01:37.141Z,27.63
2018-06-05T07:04:06.181Z,30.97
2018-06-05T07:06:35.165Z,30.27
2018-06-05T07:09:06.120Z,29.67
2018-06-05T07:11:35.201Z,30.03
2018-06-05T07:14:05.401Z,28.90
2018-06-05T07:16:34.640Z,29.43
2018-06-05T07:19:04.633Z,30.60
2018-06-05T07:21:33.438Z,29.97
2018-06-05T07:24:02.707Z,27.90
2018-06-05T07:26:31.802Z,28.70
2018-06-05T07:29:01.417Z,30.20
2018-06-05T07:31:30.237Z,29.63
2018-06-05T07:33:59.283Z,30.70
2018-06-05T07:36:28.432Z,32.23
2018-06-05T07:38:57.749Z,31.73
2018-06-05T07:41:28.476Z,32.03
2018-06-05T07:43:57.358Z,33.33
2018-06-05T07:46:28.566Z,32.97
2018-06-05T07:48:57.619Z,32.13
2018-06-05T07:51:26.383Z,32.43
2018-06-05T07:53:55.801Z,33.50
2018-06-05T07:56:24.983Z,31.00
2018-06-05T07:58:53.875Z,32.77
2018-06-05T08:01:23.735Z,32.97
2018-06-05T08:03:52.937Z,32.80
2018-06-05T08:06:22.432Z,31.30
2018-06-05T08:08:52.213Z,30.63
2018-06-05T08:11:21.702Z,31.00
2018-06-05T08:13:51.108Z,30.03
2018-06-05T08:16:20.442Z,31.33
2018-06-05T08:18:50.241Z,30.23
2018-06-05T08:21:19.149Z,30.40
2018-06-05T08:23:49.469Z,30.20
2018-06-05T08:26:18.897Z,29.03
2018-06-05T08:28:48.025Z,30.47
2018-06-05T08:31:17.518Z,29.63
2018-06-05T08:33:46.029Z,31.23
2018-06-05T08:36:15.939Z,33.13
2018-06-05T08:38:44.904Z,29.13
2018-06-05T08:41:14.213Z,28.93
2018-06-05T08:43:43.422Z,30.90
2018-06-05T08:46:12.516Z,29.97
2018-06-05T08:48:41.196Z,28.93
2018-06-05T08:51:09.849Z,29.07
2018-06-05T08:53:38.582Z,29.13
2018-06-05T08:56:08.575Z,29.00
2018-06-05T08:58:39.203Z,29.93
2018-06-05T09:01:08.137Z,30.67
2018-06-05T09:03:36.772Z,31.33
2018-06-05T09:06:06.796Z,29.97
2018-06-05T09:08:36.318Z,32.70
2018-06-05T09:11:05.105Z,28.17
2018-06-05T09:13:35.292Z,29.43
2018-06-05T09:16:04.951Z,28.57
2018-06-05T09:18:35.332Z,30.43
2018-06-05T09:21:04.710Z,30.73
2018-06-05T09:23:34.117Z,30.37
2018-06-05T09:26:03.459Z,27.83
2018-06-05T09:28:33.571Z,30.73
2018-06-05T09:31:03.489Z,28.47
2018-06-05T09:33:32.425Z,29.17
2018-06-05T09:36:01.624Z,30.77
2018-06-05T09:38:31.900Z,28.00
2018-06-05T09:41:00.946Z,28.60
2018-06-05T09:43:31.534Z,29.10
2018-06-05T09:46:00.624Z,30.30
2018-06-05T09:48:30.296Z,30.50
2018-06-05T09:50:59.281Z,31.93
2018-06-05T09:53:29.386Z,30.50
2018-06-05T09:55:58.441Z,30.43
2018-06-05T09:58:28.264Z,29.93
2018-06-05T10:00:59.210Z,31.20
2018-06-05T10:03:28.249Z,32.43
2018-06-05T10:05:58.055Z,31.33
2018-06-05T10:08:26.993Z,30.87
2018-06-05T10:10:56.616Z,32.07
2018-06-05T10:13:26.363Z,31.87
2018-06-05T10:15:55.800Z,32.60
2018-06-05T10:18:25.362Z,31.33
2018-06-05T10:20:55.325Z,31.57
2018-06-05T10:23:24.374Z,32.30
2018-06-05T10:25:54.348Z,33.37
2018-06-05T10:28:23.367Z,32.17
2018-06-05T10:30:52.434Z,34.33
2018-06-05T10:33:22.383Z,32.50
2018-06-05T10:35:51.408Z,33.10
2018-06-05T10:38:23.674Z,33.10
2018-06-05T10:40:52.892Z,32.53
2018-06-05T10:43:21.617Z,35.07
2018-06-05T10:45:50.972Z,32.67
2018-06-05T10:48:20.374Z,33.83
2018-06-05T10:50:49.602Z,31.33
2018-06-05T10:53:18.984Z,33.83
2018-06-05T10:55:48.552Z,34.27
2018-06-05T10:58:17.796Z,33.47
2018-06-05T11:00:46.850Z,36.00
2018-06-05T11:03:17.215Z,36.17
2018-06-05T11:05:46.922Z,38.53
2018-06-05T11:08:16.731Z,39.53
2018-06-05T11:10:46.171Z,39.03
2018-06-05T11:13:14.952Z,40.10
2018-06-05T11:15:43.823Z,36.83
2018-06-05T11:18:13.715Z,38.40
2018-06-05T11:20:42.396Z,38.20
2018-06-05T11:23:12.018Z,38.27
2018-06-05T11:25:42.360Z,36.70
2018-06-05T11:28:11.599Z,39.73
2018-06-05T11:30:41.990Z,39.83
2018-06-05T11:33:11.477Z,36.83
2018-06-05T11:35:40.635Z,40.13
2018-06-05T11:38:10.189Z,40.47
2018-06-05T11:40:39.758Z,38.27
2018-06-05T11:43:08.765Z,39.23
2018-06-05T11:45:37.915Z,36.33
2018-06-05T11:48:06.819Z,36.80
2018-06-05T11:50:36.276Z,37.17
2018-06-05T11:53:05.684Z,40.67
2018-06-05T11:55:34.681Z,42.90
2018-06-05T11:58:03.413Z,44.47
2018-06-05T12:00:32.937Z,42.83
2018-06-05T12:03:02.144Z,43.60
2018-06-05T12:05:31.720Z,44.73
2018-06-05T12:08:00.444Z,45.27
2018-06-05T12:10:29.417Z,46.57
2018-06-05T12:12:59.596Z,46.80
2018-06-05T12:15:28.444Z,47.83
2018-06-05T12:17:57.043Z,46.03
2018-06-05T12:20:27.801Z,45.93
2018-06-05T12:22:56.789Z,48.77
2018-06-05T12:25:25.616Z,49.13
2018-06-05T12:27:54.299Z,49.03
2018-06-05T12:30:22.945Z,51.60
2018-06-05T12:32:51.567Z,48.53
2018-06-05T12:35:20.201Z,48.97
2018-06-05T12:37:49.864Z,43.87
2018-06-05T12:40:18.510Z,47.07
2018-06-05T12:42:47.145Z,46.17
2018-06-05T12:48:06.142Z,47.63
2018-06-05T12:50:35.190Z,47.27
2018-06-05T12:53:04.528Z,46.30
2018-06-05T12:55:33.410Z,43.37
2018-06-05T12:58:02.663Z,45.20
2018-06-05T13:00:31.616Z,46.47
2018-06-05T13:03:00.857Z,48.30
2018-06-05T13:05:29.861Z,48.07
2018-06-05T13:07:58.925Z,47.23
2018-06-05T13:10:28.135Z,49.60
2018-06-05T13:12:56.742Z,48.43
2018-06-05T13:15:25.564Z,46.33
2018-06-05T13:17:54.538Z,49.60
2018-06-05T13:20:23.855Z,54.57
2018-06-05T13:22:52.495Z,49.67
2018-06-05T13:25:21.037Z,48.53
2018-06-05T13:27:49.648Z,46.37
2018-06-05T13:30:19.059Z,46.07
2018-06-05T13:32:48.957Z,49.60
2018-06-05T13:35:17.497Z,46.77
2018-06-05T13:37:46.003Z,51.57
2018-06-05T13:40:14.899Z,52.60
2018-06-05T13:42:43.959Z,47.67
2018-06-05T13:45:12.964Z,49.60
2018-06-05T13:47:41.621Z,47.50
2018-06-05T13:50:10.375Z,46.00
2018-06-05T13:52:39.523Z,43.50
2018-06-05T13:55:08.869Z,43.60
2018-06-05T13:57:37.326Z,42.13
2018-06-05T14:00:06.804Z,42.63
2018-06-05T14:15:41.166Z,41.07
2018-06-05T14:18:10.239Z,39.73
2018-06-05T14:20:38.926Z,43.77
2018-06-05T14:23:07.632Z,42.73
2018-06-05T14:25:36.655Z,41.90
2018-06-05T14:28:05.486Z,42.10
2018-06-05T14:30:33.982Z,44.87
2018-06-05T14:33:06.921Z,45.43
2018-06-05T14:35:35.532Z,42.70
2018-06-05T14:38:04.776Z,41.80
2018-06-05T14:40:33.304Z,44.07
2018-06-05T14:43:02.514Z,46.63
2018-06-05T14:45:31.551Z,43.17
2018-06-05T14:48:00.795Z,39.97
2018-06-05T14:50:29.736Z,43.10
2018-06-05T14:52:58.673Z,45.43
2018-06-05T14:55:28.152Z,44.73
2018-06-05T14:57:57.088Z,46.70
2018-06-05T15:00:26.206Z,49.13
2018-06-05T15:02:55.189Z,47.23
2018-06-05T15:05:24.677Z,49.23
2018-06-05T15:07:54.594Z,47.37
2018-06-05T15:10:23.316Z,47.77
2018-06-05T15:12:53.551Z,47.13
2018-06-05T15:15:23.462Z,48.87
2018-06-05T15:17:52.696Z,47.47
2018-06-05T15:20:22.773Z,46.57
2018-06-05T15:22:52.519Z,47.90
2018-06-05T15:25:21.128Z,46.73
2018-06-05T15:27:50.403Z,41.60
2018-06-05T15:30:19.425Z,44.80
2018-06-05T15:32:47.922Z,44.00
2018-06-05T15:35:17.952Z,42.33
2018-06-05T15:37:46.448Z,45.03
2018-06-05T15:40:15.112Z,46.87
2018-06-05T15:42:43.998Z,45.60
2018-06-05T15:45:12.720Z,43.37
2018-06-05T15:47:42.124Z,40.97
2018-06-05T15:50:11.602Z,45.33
2018-06-05T15:52:40.313Z,43.90
2018-06-05T15:55:08.971Z,42.70
2018-06-05T15:57:37.720Z,42.40
2018-06-05T16:00:07.200Z,40.90
2018-06-05T16:02:35.760Z,45.37
2018-06-05T16:05:05.242Z,42.50
2018-06-05T16:07:33.849Z,43.03
2018-06-05T16:10:02.847Z,42.37
2018-06-05T16:12:31.305Z,46.40
2018-06-05T16:15:00.208Z,46.60
2018-06-05T16:17:30.068Z,46.47
2018-06-05T16:19:58.730Z,48.13
2018-06-05T16:22:28.880Z,43.77
2018-06-05T16:24:57.434Z,45.77
2018-06-05T16:27:26.444Z,44.63
2018-06-05T16:29:55.399Z,45.27
2018-06-05T16:32:24.561Z,42.97
2018-06-05T16:34:54.516Z,45.27
2018-06-05T16:37:23.677Z,47.20
2018-06-05T16:39:52.238Z,47.40
2018-06-05T16:42:21.336Z,49.53
2018-06-05T16:44:51.613Z,50.37
2018-06-05T16:47:20.860Z,50.57
2018-06-05T16:49:49.341Z,47.70
2018-06-05T16:52:18.231Z,53.50
2018-06-05T16:54:47.738Z,48.90
2018-06-05T16:57:17.138Z,55.07
2018-06-05T16:59:45.506Z,50.90
2018-06-05T17:02:15.221Z,53.27
2018-06-05T17:04:43.721Z,56.93
2018-06-05T17:07:12.231Z,50.63
2018-06-05T17:09:41.321Z,54.30
2018-06-05T17:12:10.196Z,49.53
2018-06-05T17:14:38.886Z,51.37
2018-06-05T17:17:07.834Z,47.13
2018-06-05T17:19:36.844Z,49.23
2018-06-05T17:22:05.667Z,51.77
2018-06-05T17:24:35.121Z,49.77
2018-06-05T17:27:03.925Z,46.37
2018-06-05T17:29:32.659Z,46.90
2018-06-05T17:32:01.137Z,47.53
2018-06-05T17:34:29.748Z,46.07
2018-06-05T17:36:58.990Z,45.40
2018-06-05T17:39:28.119Z,46.10
2018-06-05T17:41:57.690Z,42.67
2018-06-05T17:44:26.616Z,39.90
2018-06-05T17:46:55.612Z,38.93
2018-06-05T17:49:24.185Z,36.87
2018-06-05T17:51:53.228Z,34.53
2018-06-05T17:54:22.270Z,33.63
2018-06-05T17:56:50.745Z,32.70
2018-06-05T17:59:20.293Z,30.23
2018-06-05T18:01:48.897Z,31.90
2018-06-05T18:04:17.419Z,31.47
2018-06-05T18:06:45.963Z,31.23
2018-06-05T18:09:14.429Z,32.00
2018-06-05T18:11:43.580Z,32.70
2018-06-05T18:14:12.890Z,31.80
2018-06-05T18:16:43.178Z,32.93
2018-06-05T18:19:13.027Z,31.73
2018-06-05T18:21:43.266Z,31.23
2018-06-05T18:24:13.273Z,31.43
2018-06-05T18:26:42.366Z,29.80
2018-06-05T18:29:11.911Z,31.50
2018-06-05T18:31:42.205Z,32.60
2018-06-05T18:34:11.756Z,31.57
2018-06-05T18:36:40.626Z,33.40
2018-06-05T18:39:09.242Z,34.30
2018-06-05T18:41:38.467Z,33.87
2018-06-05T18:44:07.423Z,33.33
2018-06-05T18:46:35.997Z,34.17
2018-06-05T18:49:04.532Z,35.27
2018-06-05T18:51:33.240Z,34.77
2018-06-05T18:54:01.803Z,32.13
2018-06-05T19:06:16.523Z,33.70
2018-06-05T19:08:45.588Z,34.13
2018-06-05T19:11:14.356Z,34.00
2018-06-05T19:13:42.898Z,33.07
2018-06-05T19:16:12.553Z,32.23
2018-06-05T19:18:41.236Z,35.97
2018-06-05T19:21:09.686Z,31.60
2018-06-05T19:23:38.168Z,33.37
2018-06-05T19:26:06.637Z,34.67
2018-06-05T19:28:35.857Z,34.60
2018-06-05T19:31:04.803Z,34.17
2018-06-05T19:33:34.312Z,34.03
2018-06-05T19:36:03.577Z,34.43
2018-06-05T19:38:32.095Z,32.27
2018-06-05T19:41:01.222Z,32.97
2018-06-05T19:43:30.650Z,35.17
2018-06-05T19:46:00.041Z,35.03
2018-06-05T19:48:29.419Z,36.67
2018-06-05T19:50:57.973Z,34.90
2018-06-05T19:53:27.388Z,34.07
2018-06-05T19:55:56.001Z,36.60
2018-06-05T19:58:24.392Z,36.47
2018-06-05T20:00:53.011Z,35.90
2018-06-05T20:03:21.895Z,35.03
2018-06-05T20:05:50.425Z,36.77
2018-06-05T20:08:19.613Z,36.20
2018-06-05T20:10:48.483Z,36.93
2018-06-05T20:13:17.050Z,36.13
2018-06-05T20:15:45.534Z,39.27
2018-06-05T20:18:15.709Z,37.33
2018-06-05T20:20:44.213Z,38.20
2018-06-05T20:23:13.446Z,39.90
2018-06-05T20:25:42.137Z,38.13
2018-06-05T20:28:11.573Z,41.10
2018-06-05T20:30:40.072Z,39.63
2018-06-05T20:33:08.860Z,40.70
2018-06-05T20:35:37.702Z,39.87
2018-06-05T20:38:06.494Z,41.73
2018-06-05T20:40:34.974Z,40.17
2018-06-05T20:43:04.224Z,40.17
2018-06-05T20:45:32.787Z,39.53
2018-06-05T20:48:01.755Z,40.70
2018-06-05T20:50:30.577Z,40.63
2018-06-05T20:52:59.122Z,41.40
2018-06-05T20:55:27.642Z,40.50
2018-06-05T20:57:57.544Z,38.27
2018-06-05T21:00:25.708Z,42.47
2018-06-05T21:02:54.191Z,41.60
2018-06-05T21:05:23.372Z,43.73
2018-06-05T21:07:52.178Z,42.97
2018-06-05T21:10:21.110Z,43.97
2018-06-05T21:12:50.476Z,43.87
2018-06-05T21:25:09.022Z,43.07
2018-06-05T21:27:37.887Z,44.20
2018-06-05T21:30:07.404Z,44.23
2018-06-05T21:32:36.222Z,44.97
2018-06-05T21:35:04.773Z,45.27
2018-06-05T21:37:33.601Z,46.57
2018-06-05T21:40:02.586Z,45.77
2018-06-05T21:42:31.049Z,43.97
2018-06-05T21:44:59.796Z,44.97
2018-06-05T21:47:28.269Z,44.87
2018-06-05T21:49:57.349Z,46.13
2018-06-05T21:52:26.127Z,44.60
2018-06-05T21:54:54.660Z,47.30
2018-06-05T21:57:24.173Z,45.63
2018-06-05T21:59:52.678Z,46.50
2018-06-05T22:02:21.869Z,44.47
2018-06-05T22:04:50.313Z,47.93
2018-06-05T22:07:19.330Z,47.00
2018-06-05T22:09:47.754Z,44.40
2018-06-05T22:12:16.720Z,46.27
2018-06-05T22:14:46.113Z,45.87
2018-06-05T22:17:16.103Z,46.00
2018-06-05T22:19:44.592Z,46.07
2018-06-05T22:22:13.081Z,44.03
2018-06-05T22:24:42.204Z,45.20
2018-06-05T22:27:10.643Z,45.47
2018-06-05T22:29:39.794Z,44.90
2018-06-05T22:32:08.325Z,44.20
2018-06-05T22:34:36.949Z,44.67
2018-06-05T22:37:05.710Z,44.27
2018-06-05T22:39:34.389Z,45.23
2018-06-05T22:42:04.330Z,43.97
2018-06-05T22:44:33.115Z,46.70
2018-06-05T22:47:01.410Z,45.37
2018-06-05T22:49:30.994Z,48.07
2018-06-05T22:51:59.404Z,44.70
2018-06-05T22:54:27.977Z,44.37
2018-06-05T22:56:56.458Z,44.90
2018-06-05T22:59:26.216Z,47.80
2018-06-05T23:01:55.263Z,44.47
2018-06-05T23:04:23.967Z,44.10
2018-06-05T23:06:52.684Z,47.43
2018-06-05T23:09:21.109Z,44.27
2018-06-05T23:11:49.917Z,45.73
2018-06-05T23:14:18.345Z,45.03
2018-06-05T23:16:47.594Z,46.00
2018-06-05T23:19:16.060Z,43.67
2018-06-05T23:21:45.368Z,43.80
2018-06-05T23:24:13.832Z,43.10
2018-06-05T23:26:42.308Z,43.83
2018-06-05T23:29:11.186Z,44.57
2018-06-05T23:31:39.974Z,46.20
2018-06-05T23:34:08.418Z,42.87
2018-06-05T23:36:37.001Z,43.43
2018-06-05T23:39:07.746Z,44.67
2018-06-05T23:41:36.564Z,45.03
2018-06-05T23:44:05.013Z,45.70
2018-06-05T23:46:33.713Z,43.23
2018-06-05T23:49:02.900Z,43.90
2018-06-05T23:51:31.688Z,44.23
2018-06-05T23:54:00.169Z,44.83
2018-06-05T23:56:28.579Z,43.50
2018-06-05T23:58:57.065Z,45.93
